Terminal Aerodrome Forecast
Issued by NWS

Home | Current Version | Previous Version | Text Only | Print | Product List | Glossary On
Versions: 1 2 3 4 5 6 7 8 9 10 11 12 13
227
FTUS46 KPDT 231720
TAFBDN
TAF
KBDN 231720Z 2318/2418 35005KT P6SM SKC
     FM232100 36008G15KT P6SM FEW070 SCT250
     FM240300 33006KT P6SM FEW080 SCT150
     FM240900 21004KT P6SM BKN150=

USA.gov is the U.S. government's official web portal to all federal, state and local government web resources and services.